sensor_id;sensor_type;location;lat;lon;timestamp;P1;durP1;ratioP1;P2;durP2;ratioP2
4857;SDS011;58975;51.978;8.472;2022-10-15T00:01:14;13.98;;;9.23;;
4857;SDS011;58975;51.978;8.472;2022-10-15T00:06:14;15.60;;;10.80;;
4857;SDS011;58975;51.978;8.472;2022-10-15T00:11:14;14.80;;;8.95;;
4857;SDS011;58975;51.978;8.472;2022-10-15T00:16:14;13.73;;;9.10;;
4857;SDS011;58975;51.978;8.472;2022-10-15T00:21:13;14.75;;;8.77;;
4857;SDS011;58975;51.978;8.472;2022-10-15T00:26:13;14.30;;;9.10;;
4857;SDS011;58975;51.978;8.472;2022-10-15T00:31:17;15.20;;;9.85;;
4857;SDS011;58975;51.978;8.472;2022-10-15T00:36:17;17.17;;;10.40;;
4857;SDS011;58975;51.978;8.472;2022-10-15T00:41:19;13.60;;;8.77;;
4857;SDS011;58975;51.978;8.472;2022-10-15T00:51:32;12.80;;;8.50;;
4857;SDS011;58975;51.978;8.472;2022-10-15T00:56:33;12.93;;;9.23;;
4857;SDS011;58975;51.978;8.472;2022-10-15T01:01:32;13.65;;;9.10;;
4857;SDS011;58975;51.978;8.472;2022-10-15T01:06:30;19.58;;;10.43;;
4857;SDS011;58975;51.978;8.472;2022-10-15T01:16:46;13.32;;;8.80;;
4857;SDS011;58975;51.978;8.472;2022-10-15T01:21:53;14.20;;;9.00;;
4857;SDS011;58975;51.978;8.472;2022-10-15T01:32:22;17.85;;;10.77;;
4857;SDS011;58975;51.978;8.472;2022-10-15T01:37:32;23.55;;;12.00;;
4857;SDS011;58975;51.978;8.472;2022-10-15T01:47:44;16.00;;;10.20;;
4857;SDS011;58975;51.978;8.472;2022-10-15T01:52:44;20.88;;;11.68;;
4857;SDS011;58975;51.978;8.472;2022-10-15T01:57:42;16.75;;;8.85;;
4857;SDS011;58975;51.978;8.472;2022-10-15T02:02:40;14.43;;;8.85;;
4857;SDS011;58975;51.978;8.472;2022-10-15T02:18:15;20.77;;;9.70;;
4857;SDS011;58975;51.978;8.472;2022-10-15T02:23:20;16.83;;;10.00;;
4857;SDS011;58975;51.978;8.472;2022-10-15T02:28:20;18.20;;;11.35;;
4857;SDS011;58975;51.978;8.472;2022-10-15T02:33:20;18.92;;;11.35;;
4857;SDS011;58975;51.978;8.472;2022-10-15T02:38:20;19.33;;;10.18;;
4857;SDS011;58975;51.978;8.472;2022-10-15T02:43:19;19.50;;;11.68;;
4857;SDS011;58975;51.978;8.472;2022-10-15T02:48:17;28.53;;;13.30;;
4857;SDS011;58975;51.978;8.472;2022-10-15T02:53:13;21.42;;;10.18;;
4857;SDS011;58975;51.978;8.472;2022-10-15T02:58:09;23.42;;;12.55;;
4857;SDS011;58975;51.978;8.472;2022-10-15T03:03:06;21.95;;;11.93;;
4857;SDS011;58975;51.978;8.472;2022-10-15T03:08:03;26.38;;;12.68;;
4857;SDS011;58975;51.978;8.472;2022-10-15T03:13:03;32.42;;;15.55;;
4857;SDS011;58975;51.978;8.472;2022-10-15T03:18:00;37.75;;;16.95;;
4857;SDS011;58975;51.978;8.472;2022-10-15T03:22:57;54.70;;;19.67;;
4857;SDS011;58975;51.978;8.472;2022-10-15T03:27:53;48.28;;;18.48;;
4857;SDS011;58975;51.978;8.472;2022-10-15T03:32:50;58.70;;;20.58;;
4857;SDS011;58975;51.978;8.472;2022-10-15T03:37:46;61.08;;;19.65;;
4857;SDS011;58975;51.978;8.472;2022-10-15T03:42:43;54.90;;;20.85;;
4857;SDS011;58975;51.978;8.472;2022-10-15T03:47:39;76.57;;;23.13;;
4857;SDS011;58975;51.978;8.472;2022-10-15T03:52:36;77.35;;;25.75;;
4857;SDS011;58975;51.978;8.472;2022-10-15T03:57:33;84.00;;;28.67;;
4857;SDS011;58975;51.978;8.472;2022-10-15T04:02:30;98.13;;;29.92;;
4857;SDS011;58975;51.978;8.472;2022-10-15T04:07:26;92.68;;;27.48;;
4857;SDS011;58975;51.978;8.472;2022-10-15T04:12:23;95.93;;;29.10;;
4857;SDS011;58975;51.978;8.472;2022-10-15T04:17:20;82.93;;;27.67;;
4857;SDS011;58975;51.978;8.472;2022-10-15T04:22:17;73.30;;;24.83;;
4857;SDS011;58975;51.978;8.472;2022-10-15T04:27:13;81.00;;;24.60;;
4857;SDS011;58975;51.978;8.472;2022-10-15T04:32:15;52.60;;;20.60;;
4857;SDS011;58975;51.978;8.472;2022-10-15T04:37:12;67.38;;;22.55;;
4857;SDS011;58975;51.978;8.472;2022-10-15T04:42:08;57.05;;;21.73;;
4857;SDS011;58975;51.978;8.472;2022-10-15T04:47:05;58.08;;;21.77;;
4857;SDS011;58975;51.978;8.472;2022-10-15T04:52:01;71.43;;;24.60;;
4857;SDS011;58975;51.978;8.472;2022-10-15T04:56:58;60.45;;;22.83;;
4857;SDS011;58975;51.978;8.472;2022-10-15T05:01:54;59.65;;;23.75;;
4857;SDS011;58975;51.978;8.472;2022-10-15T05:06:51;63.58;;;23.30;;
4857;SDS011;58975;51.978;8.472;2022-10-15T05:11:47;70.95;;;24.58;;
4857;SDS011;58975;51.978;8.472;2022-10-15T05:16:43;61.13;;;24.25;;
4857;SDS011;58975;51.978;8.472;2022-10-15T05:21:40;74.22;;;26.05;;
4857;SDS011;58975;51.978;8.472;2022-10-15T05:26:36;60.67;;;21.75;;
4857;SDS011;58975;51.978;8.472;2022-10-15T05:31:33;56.50;;;21.08;;
4857;SDS011;58975;51.978;8.472;2022-10-15T05:36:29;61.25;;;23.55;;
4857;SDS011;58975;51.978;8.472;2022-10-15T05:41:26;70.47;;;23.08;;
4857;SDS011;58975;51.978;8.472;2022-10-15T05:46:24;64.28;;;23.20;;
4857;SDS011;58975;51.978;8.472;2022-10-15T05:51:21;53.55;;;21.05;;
4857;SDS011;58975;51.978;8.472;2022-10-15T05:56:20;54.83;;;19.98;;
4857;SDS011;58975;51.978;8.472;2022-10-15T06:01:17;65.60;;;22.60;;
4857;SDS011;58975;51.978;8.472;2022-10-15T06:06:21;70.70;;;24.48;;
4857;SDS011;58975;51.978;8.472;2022-10-15T06:11:19;67.90;;;21.52;;
4857;SDS011;58975;51.978;8.472;2022-10-15T06:16:16;70.97;;;24.27;;
4857;SDS011;58975;51.978;8.472;2022-10-15T06:21:19;60.67;;;21.52;;
4857;SDS011;58975;51.978;8.472;2022-10-15T06:26:16;52.28;;;19.88;;
4857;SDS011;58975;51.978;8.472;2022-10-15T06:31:12;48.70;;;18.77;;
4857;SDS011;58975;51.978;8.472;2022-10-15T06:36:09;50.22;;;17.27;;
4857;SDS011;58975;51.978;8.472;2022-10-15T06:41:06;50.87;;;17.00;;
4857;SDS011;58975;51.978;8.472;2022-10-15T06:46:03;57.67;;;19.98;;
4857;SDS011;58975;51.978;8.472;2022-10-15T06:51:01;50.05;;;19.73;;
4857;SDS011;58975;51.978;8.472;2022-10-15T06:55:59;47.93;;;18.97;;
4857;SDS011;58975;51.978;8.472;2022-10-15T07:01:00;60.40;;;21.33;;
4857;SDS011;58975;51.978;8.472;2022-10-15T07:06:02;71.47;;;22.35;;
4857;SDS011;58975;51.978;8.472;2022-10-15T07:11:03;67.43;;;22.38;;
4857;SDS011;58975;51.978;8.472;2022-10-15T07:16:05;60.05;;;23.13;;
4857;SDS011;58975;51.978;8.472;2022-10-15T07:21:04;74.53;;;25.60;;
4857;SDS011;58975;51.978;8.472;2022-10-15T07:26:03;67.95;;;25.25;;
4857;SDS011;58975;51.978;8.472;2022-10-15T07:31:03;74.50;;;25.17;;
4857;SDS011;58975;51.978;8.472;2022-10-15T07:36:05;59.90;;;25.80;;
4857;SDS011;58975;51.978;8.472;2022-10-15T07:41:03;68.07;;;26.67;;
4857;SDS011;58975;51.978;8.472;2022-10-15T07:46:00;67.75;;;26.73;;
4857;SDS011;58975;51.978;8.472;2022-10-15T07:50:58;67.47;;;27.57;;
4857;SDS011;58975;51.978;8.472;2022-10-15T07:55:59;73.05;;;27.30;;
4857;SDS011;58975;51.978;8.472;2022-10-15T08:01:00;66.03;;;26.00;;
4857;SDS011;58975;51.978;8.472;2022-10-15T08:06:01;61.70;;;26.17;;
4857;SDS011;58975;51.978;8.472;2022-10-15T08:11:03;64.22;;;27.02;;
4857;SDS011;58975;51.978;8.472;2022-10-15T08:16:00;61.08;;;27.45;;
4857;SDS011;58975;51.978;8.472;2022-10-15T08:20:58;58.35;;;27.02;;
4857;SDS011;58975;51.978;8.472;2022-10-15T08:25:59;60.17;;;26.25;;
4857;SDS011;58975;51.978;8.472;2022-10-15T08:30:59;55.17;;;27.27;;
4857;SDS011;58975;51.978;8.472;2022-10-15T08:36:01;45.28;;;23.73;;
4857;SDS011;58975;51.978;8.472;2022-10-15T08:41:00;48.90;;;24.17;;
4857;SDS011;58975;51.978;8.472;2022-10-15T08:51:05;40.95;;;22.15;;
4857;SDS011;58975;51.978;8.472;2022-10-15T08:56:14;43.70;;;21.98;;
4857;SDS011;58975;51.978;8.472;2022-10-15T09:01:17;37.20;;;20.35;;
4857;SDS011;58975;51.978;8.472;2022-10-15T09:06:23;34.75;;;20.48;;
4857;SDS011;58975;51.978;8.472;2022-10-15T09:17:05;27.50;;;17.85;;
4857;SDS011;58975;51.978;8.472;2022-10-15T09:22:11;28.02;;;15.80;;
4857;SDS011;58975;51.978;8.472;2022-10-15T09:27:15;27.13;;;16.73;;
4857;SDS011;58975;51.978;8.472;2022-10-15T09:38:00;27.60;;;17.85;;
4857;SDS011;58975;51.978;8.472;2022-10-15T09:43:13;26.08;;;15.95;;
4857;SDS011;58975;51.978;8.472;2022-10-15T09:48:16;27.98;;;16.27;;
4857;SDS011;58975;51.978;8.472;2022-10-15T09:58:12;26.23;;;15.55;;
4857;SDS011;58975;51.978;8.472;2022-10-15T10:03:13;25.83;;;15.00;;
4857;SDS011;58975;51.978;8.472;2022-10-15T10:08:23;24.27;;;15.63;;
4857;SDS011;58975;51.978;8.472;2022-10-15T10:13:23;25.23;;;13.45;;
4857;SDS011;58975;51.978;8.472;2022-10-15T10:18:24;22.35;;;13.27;;
4857;SDS011;58975;51.978;8.472;2022-10-15T10:23:21;19.42;;;12.32;;
4857;SDS011;58975;51.978;8.472;2022-10-15T10:28:23;18.98;;;11.85;;
4857;SDS011;58975;51.978;8.472;2022-10-15T10:33:32;17.27;;;10.43;;
4857;SDS011;58975;51.978;8.472;2022-10-15T10:38:41;15.00;;;9.57;;
4857;SDS011;58975;51.978;8.472;2022-10-15T10:43:38;13.63;;;8.77;;
4857;SDS011;58975;51.978;8.472;2022-10-15T10:48:43;12.68;;;7.60;;
4857;SDS011;58975;51.978;8.472;2022-10-15T10:58:44;11.52;;;7.18;;
4857;SDS011;58975;51.978;8.472;2022-10-15T11:03:41;8.10;;;5.53;;
4857;SDS011;58975;51.978;8.472;2022-10-15T11:19:44;8.13;;;5.78;;
4857;SDS011;58975;51.978;8.472;2022-10-15T11:25:21;10.32;;;5.50;;
4857;SDS011;58975;51.978;8.472;2022-10-15T11:41:10;5.13;;;3.55;;
4857;SDS011;58975;51.978;8.472;2022-10-15T11:51:33;5.43;;;2.47;;
4857;SDS011;58975;51.978;8.472;2022-10-15T11:56:36;6.80;;;2.60;;
4857;SDS011;58975;51.978;8.472;2022-10-15T12:06:45;2.00;;;1.80;;
4857;SDS011;58975;51.978;8.472;2022-10-15T12:11:47;1.60;;;1.50;;
4857;SDS011;58975;51.978;8.472;2022-10-15T12:22:09;1.65;;;1.30;;
4857;SDS011;58975;51.978;8.472;2022-10-15T12:32:25;1.73;;;1.40;;
4857;SDS011;58975;51.978;8.472;2022-10-15T12:37:25;1.25;;;1.05;;
4857;SDS011;58975;51.978;8.472;2022-10-15T12:42:33;0.75;;;0.75;;
4857;SDS011;58975;51.978;8.472;2022-10-15T12:47:52;0.60;;;0.60;;
4857;SDS011;58975;51.978;8.472;2022-10-15T12:52:51;1.88;;;0.77;;
4857;SDS011;58975;51.978;8.472;2022-10-15T13:02:55;0.65;;;0.60;;
4857;SDS011;58975;51.978;8.472;2022-10-15T13:07:57;0.40;;;0.40;;
4857;SDS011;58975;51.978;8.472;2022-10-15T13:12:56;7.82;;;0.80;;
4857;SDS011;58975;51.978;8.472;2022-10-15T13:18:05;0.50;;;0.50;;
4857;SDS011;58975;51.978;8.472;2022-10-15T13:33:29;1.45;;;0.50;;
4857;SDS011;58975;51.978;8.472;2022-10-15T13:38:26;0.60;;;0.60;;
4857;SDS011;58975;51.978;8.472;2022-10-15T13:43:24;3.17;;;0.40;;
4857;SDS011;58975;51.978;8.472;2022-10-15T13:48:24;1.40;;;0.70;;
4857;SDS011;58975;51.978;8.472;2022-10-15T13:58:45;0.70;;;0.70;;
4857;SDS011;58975;51.978;8.472;2022-10-15T14:08:45;0.52;;;0.50;;
4857;SDS011;58975;51.978;8.472;2022-10-15T14:14:01;0.40;;;0.40;;
4857;SDS011;58975;51.978;8.472;2022-10-15T14:19:06;7.63;;;0.50;;
4857;SDS011;58975;51.978;8.472;2022-10-15T14:24:06;0.43;;;0.32;;
4857;SDS011;58975;51.978;8.472;2022-10-15T14:29:15;1.13;;;0.60;;
4857;SDS011;58975;51.978;8.472;2022-10-15T14:39:33;1.30;;;0.70;;
4857;SDS011;58975;51.978;8.472;2022-10-15T14:44:41;2.00;;;0.55;;
4857;SDS011;58975;51.978;8.472;2022-10-15T14:49:42;2.65;;;0.55;;
4857;SDS011;58975;51.978;8.472;2022-10-15T14:54:43;0.52;;;0.50;;
4857;SDS011;58975;51.978;8.472;2022-10-15T14:59:46;0.60;;;0.50;;
4857;SDS011;58975;51.978;8.472;2022-10-15T15:04:43;0.47;;;0.47;;
4857;SDS011;58975;51.978;8.472;2022-10-15T15:09:46;0.65;;;0.32;;
4857;SDS011;58975;51.978;8.472;2022-10-15T15:14:43;1.35;;;0.40;;
4857;SDS011;58975;51.978;8.472;2022-10-15T15:19:40;3.90;;;0.60;;
4857;SDS011;58975;51.978;8.472;2022-10-15T15:24:39;2.05;;;0.30;;
4857;SDS011;58975;51.978;8.472;2022-10-15T15:29:36;2.87;;;0.57;;
4857;SDS011;58975;51.978;8.472;2022-10-15T15:34:32;1.95;;;0.40;;
4857;SDS011;58975;51.978;8.472;2022-10-15T15:39:29;1.60;;;0.50;;
4857;SDS011;58975;51.978;8.472;2022-10-15T15:44:25;0.47;;;0.47;;
4857;SDS011;58975;51.978;8.472;2022-10-15T15:49:21;0.82;;;0.40;;
4857;SDS011;58975;51.978;8.472;2022-10-15T15:54:18;0.17;;;0.17;;
4857;SDS011;58975;51.978;8.472;2022-10-15T15:59:15;0.80;;;0.30;;
4857;SDS011;58975;51.978;8.472;2022-10-15T16:04:14;1.05;;;0.45;;
4857;SDS011;58975;51.978;8.472;2022-10-15T16:09:10;0.25;;;0.25;;
4857;SDS011;58975;51.978;8.472;2022-10-15T16:14:07;0.40;;;0.38;;
4857;SDS011;58975;51.978;8.472;2022-10-15T16:19:04;0.38;;;0.38;;
4857;SDS011;58975;51.978;8.472;2022-10-15T16:24:01;0.52;;;0.40;;
4857;SDS011;58975;51.978;8.472;2022-10-15T16:28:57;0.57;;;0.30;;
4857;SDS011;58975;51.978;8.472;2022-10-15T16:33:54;0.65;;;0.40;;
4857;SDS011;58975;51.978;8.472;2022-10-15T16:38:50;0.73;;;0.50;;
4857;SDS011;58975;51.978;8.472;2022-10-15T16:43:47;2.33;;;0.50;;
4857;SDS011;58975;51.978;8.472;2022-10-15T16:48:44;1.15;;;0.63;;
4857;SDS011;58975;51.978;8.472;2022-10-15T16:53:46;3.33;;;1.40;;
4857;SDS011;58975;51.978;8.472;2022-10-15T16:58:43;2.10;;;0.75;;
4857;SDS011;58975;51.978;8.472;2022-10-15T17:03:40;2.70;;;1.00;;
4857;SDS011;58975;51.978;8.472;2022-10-15T17:08:41;2.53;;;1.20;;
4857;SDS011;58975;51.978;8.472;2022-10-15T17:13:38;1.77;;;1.13;;
4857;SDS011;58975;51.978;8.472;2022-10-15T17:18:35;1.55;;;0.85;;
4857;SDS011;58975;51.978;8.472;2022-10-15T17:23:31;3.70;;;1.02;;
4857;SDS011;58975;51.978;8.472;2022-10-15T17:28:28;1.00;;;0.80;;
4857;SDS011;58975;51.978;8.472;2022-10-15T17:33:24;4.35;;;1.17;;
4857;SDS011;58975;51.978;8.472;2022-10-15T17:38:21;3.22;;;1.23;;
4857;SDS011;58975;51.978;8.472;2022-10-15T17:43:17;4.38;;;1.60;;
4857;SDS011;58975;51.978;8.472;2022-10-15T17:48:14;2.65;;;2.05;;
4857;SDS011;58975;51.978;8.472;2022-10-15T17:53:10;3.85;;;1.58;;
4857;SDS011;58975;51.978;8.472;2022-10-15T17:58:08;2.65;;;1.58;;
4857;SDS011;58975;51.978;8.472;2022-10-15T18:03:05;2.17;;;1.17;;
4857;SDS011;58975;51.978;8.472;2022-10-15T18:08:01;4.15;;;2.10;;
4857;SDS011;58975;51.978;8.472;2022-10-15T18:12:59;4.90;;;2.42;;
4857;SDS011;58975;51.978;8.472;2022-10-15T18:17:55;2.40;;;2.03;;
4857;SDS011;58975;51.978;8.472;2022-10-15T18:22:52;1.98;;;1.85;;
4857;SDS011;58975;51.978;8.472;2022-10-15T18:27:48;3.30;;;2.10;;
4857;SDS011;58975;51.978;8.472;2022-10-15T18:32:45;3.00;;;2.60;;
4857;SDS011;58975;51.978;8.472;2022-10-15T18:37:41;2.55;;;2.35;;
4857;SDS011;58975;51.978;8.472;2022-10-15T18:42:38;7.93;;;2.10;;
4857;SDS011;58975;51.978;8.472;2022-10-15T18:47:34;3.22;;;2.65;;
4857;SDS011;58975;51.978;8.472;2022-10-15T18:52:31;4.40;;;2.40;;
4857;SDS011;58975;51.978;8.472;2022-10-15T18:57:35;5.13;;;2.58;;
4857;SDS011;58975;51.978;8.472;2022-10-15T19:02:32;3.92;;;2.78;;
4857;SDS011;58975;51.978;8.472;2022-10-15T19:07:28;1.90;;;1.67;;
4857;SDS011;58975;51.978;8.472;2022-10-15T19:12:26;8.40;;;1.95;;
4857;SDS011;58975;51.978;8.472;2022-10-15T19:17:23;1.67;;;1.30;;
4857;SDS011;58975;51.978;8.472;2022-10-15T19:22:20;3.17;;;2.15;;
4857;SDS011;58975;51.978;8.472;2022-10-15T19:27:16;4.78;;;1.20;;
4857;SDS011;58975;51.978;8.472;2022-10-15T19:32:12;4.72;;;1.92;;
4857;SDS011;58975;51.978;8.472;2022-10-15T19:37:09;8.52;;;1.40;;
4857;SDS011;58975;51.978;8.472;2022-10-15T19:42:05;2.83;;;1.10;;
4857;SDS011;58975;51.978;8.472;2022-10-15T19:47:02;1.50;;;0.93;;
4857;SDS011;58975;51.978;8.472;2022-10-15T19:51:58;1.67;;;0.90;;
4857;SDS011;58975;51.978;8.472;2022-10-15T19:56:56;2.13;;;1.30;;
4857;SDS011;58975;51.978;8.472;2022-10-15T20:01:52;3.08;;;1.15;;
4857;SDS011;58975;51.978;8.472;2022-10-15T20:06:49;0.70;;;0.63;;
4857;SDS011;58975;51.978;8.472;2022-10-15T20:11:47;0.90;;;0.75;;
4857;SDS011;58975;51.978;8.472;2022-10-15T20:16:44;1.05;;;0.80;;
4857;SDS011;58975;51.978;8.472;2022-10-15T20:21:40;3.20;;;1.02;;
4857;SDS011;58975;51.978;8.472;2022-10-15T20:26:37;2.40;;;0.68;;
4857;SDS011;58975;51.978;8.472;2022-10-15T20:31:33;2.75;;;0.93;;
4857;SDS011;58975;51.978;8.472;2022-10-15T20:36:30;2.67;;;1.10;;
4857;SDS011;58975;51.978;8.472;2022-10-15T20:41:27;2.80;;;1.15;;
4857;SDS011;58975;51.978;8.472;2022-10-15T20:46:34;1.48;;;0.80;;
4857;SDS011;58975;51.978;8.472;2022-10-15T20:51:35;1.55;;;1.10;;
4857;SDS011;58975;51.978;8.472;2022-10-15T20:56:35;0.93;;;0.82;;
4857;SDS011;58975;51.978;8.472;2022-10-15T21:01:32;0.75;;;0.65;;
4857;SDS011;58975;51.978;8.472;2022-10-15T21:06:29;2.97;;;0.88;;
4857;SDS011;58975;51.978;8.472;2022-10-15T21:11:26;1.17;;;0.70;;
4857;SDS011;58975;51.978;8.472;2022-10-15T21:16:22;1.00;;;0.80;;
4857;SDS011;58975;51.978;8.472;2022-10-15T21:21:23;1.00;;;0.70;;
4857;SDS011;58975;51.978;8.472;2022-10-15T21:26:20;2.20;;;0.95;;
4857;SDS011;58975;51.978;8.472;2022-10-15T21:31:16;1.67;;;1.10;;
4857;SDS011;58975;51.978;8.472;2022-10-15T21:36:17;1.33;;;1.23;;
4857;SDS011;58975;51.978;8.472;2022-10-15T21:41:17;1.23;;;1.13;;
4857;SDS011;58975;51.978;8.472;2022-10-15T21:46:14;2.30;;;1.15;;
4857;SDS011;58975;51.978;8.472;2022-10-15T21:51:11;5.22;;;1.35;;
4857;SDS011;58975;51.978;8.472;2022-10-15T21:56:09;2.63;;;1.10;;
4857;SDS011;58975;51.978;8.472;2022-10-15T22:01:20;4.63;;;1.20;;
4857;SDS011;58975;51.978;8.472;2022-10-15T22:06:19;2.03;;;1.50;;
4857;SDS011;58975;51.978;8.472;2022-10-15T22:11:17;4.13;;;1.50;;
4857;SDS011;58975;51.978;8.472;2022-10-15T22:16:19;1.67;;;1.40;;
4857;SDS011;58975;51.978;8.472;2022-10-15T22:21:19;2.50;;;1.70;;
4857;SDS011;58975;51.978;8.472;2022-10-15T22:26:18;5.93;;;1.67;;
4857;SDS011;58975;51.978;8.472;2022-10-15T22:31:17;2.53;;;1.50;;
4857;SDS011;58975;51.978;8.472;2022-10-15T22:36:14;2.00;;;1.63;;
4857;SDS011;58975;51.978;8.472;2022-10-15T22:41:15;3.22;;;1.95;;
4857;SDS011;58975;51.978;8.472;2022-10-15T22:46:11;2.70;;;2.00;;
4857;SDS011;58975;51.978;8.472;2022-10-15T22:51:10;5.00;;;2.53;;
4857;SDS011;58975;51.978;8.472;2022-10-15T22:56:10;5.10;;;2.70;;
4857;SDS011;58975;51.978;8.472;2022-10-15T23:01:10;5.35;;;3.10;;
4857;SDS011;58975;51.978;8.472;2022-10-15T23:06:11;3.45;;;3.00;;
4857;SDS011;58975;51.978;8.472;2022-10-15T23:11:09;4.40;;;2.90;;
4857;SDS011;58975;51.978;8.472;2022-10-15T23:21:16;5.18;;;3.58;;
4857;SDS011;58975;51.978;8.472;2022-10-15T23:26:15;5.43;;;3.28;;
4857;SDS011;58975;51.978;8.472;2022-10-15T23:31:15;8.32;;;3.72;;
4857;SDS011;58975;51.978;8.472;2022-10-15T23:36:16;6.50;;;3.85;;
4857;SDS011;58975;51.978;8.472;2022-10-15T23:41:13;7.35;;;4.07;;
4857;SDS011;58975;51.978;8.472;2022-10-15T23:46:10;7.22;;;3.20;;
4857;SDS011;58975;51.978;8.472;2022-10-15T23:51:17;9.35;;;3.38;;
4857;SDS011;58975;51.978;8.472;2022-10-15T23:56:18;4.05;;;3.50;;
